Time;durP1;ratioP1;P1;durP2;ratioP2;P2;SDS_P1;SDS_P2;PMS_P1;PMS_P2;Temp;Humidity;BMP_temperature;BMP_pressure;BME280_temperature;BME280_humidity;BME280_pressure;Samples;Min_cycle;Max_cycle;Signal;HPM_P1;HPM_P2
2022/10/21 00:00:36;;;;;;;10.80;3.42;;;11.70;99.90;;;;;;5030889;28;20484;-46
2022/10/21 00:03:02;;;;;;;8.38;3.20;;;11.80;99.90;;;;;;5030837;28;20064;-46
2022/10/21 00:05:28;;;;;;;17.20;4.53;;;11.90;99.90;;;;;;5012925;28;20036;-49
2022/10/21 00:07:54;;;;;;;5.82;3.55;;;12.00;99.90;;;;;;5030754;28;20489;-49
2022/10/21 00:10:19;;;;;;;12.85;4.32;;;12.10;99.90;;;;;;5030640;28;20128;-44
2022/10/21 00:12:45;;;;;;;10.15;4.20;;;12.20;99.90;;;;;;5030664;28;20029;-46
2022/10/21 00:15:11;;;;;;;8.55;3.78;;;12.30;99.90;;;;;;5030356;28;20404;-49
2022/10/21 00:17:39;;;;;;;9.52;4.40;;;12.40;99.90;;;;;;5030884;28;20112;-46
2022/10/21 00:20:07;;;;;;;14.65;4.28;;;12.60;99.90;;;;;;5033708;28;20049;-50
2022/10/21 00:22:32;;;;;;;8.50;4.38;;;12.60;99.90;;;;;;5034240;28;20091;-46
2022/10/21 00:24:58;;;;;;;10.07;4.60;;;12.80;99.90;;;;;;5034411;28;20496;-48
2022/10/21 00:27:24;;;;;;;11.13;4.82;;;12.80;99.90;;;;;;5034248;28;20046;-51
2022/10/21 00:29:50;;;;;;;9.18;4.57;;;12.90;99.90;;;;;;5034094;28;20030;-46
2022/10/21 00:32:15;;;;;;;8.02;4.43;;;12.90;99.90;;;;;;5034325;28;20377;-52
2022/10/21 00:34:42;;;;;;;8.48;3.90;;;12.90;99.90;;;;;;5034064;28;20045;-47
2022/10/21 00:37:10;;;;;;;10.88;4.30;;;12.90;99.90;;;;;;5034245;28;20025;-47
2022/10/21 00:39:36;;;;;;;7.38;3.88;;;12.90;99.90;;;;;;5034051;28;20032;-52
2022/10/21 00:42:05;;;;;;;8.27;4.38;;;12.90;99.90;;;;;;5034115;28;20100;-47
2022/10/21 00:44:31;;;;;;;7.65;3.60;;;13.00;99.90;;;;;;5034019;28;20033;-52
2022/10/21 00:47:05;;;;;;;10.32;4.05;;;13.00;99.90;;;;;;5034073;28;20018;-51
2022/10/21 00:49:42;;;;;;;11.20;3.95;;;13.10;99.90;;;;;;5033952;28;20037;-52
2022/10/21 00:52:12;;;;;;;9.57;4.03;;;13.10;99.90;;;;;;5033998;28;20043;-46
2022/10/21 00:54:39;;;;;;;12.48;3.85;;;13.10;99.90;;;;;;5033747;28;20041;-48
2022/10/21 00:57:06;;;;;;;8.15;3.25;;;13.20;99.90;;;;;;5033758;28;20021;-49
2022/10/21 00:59:37;;;;;;;10.32;4.22;;;13.20;99.90;;;;;;5033808;28;20029;-51
2022/10/21 01:02:03;;;;;;;10.38;3.92;;;13.20;99.90;;;;;;5033596;28;20013;-51
2022/10/21 01:04:29;;;;;;;8.00;3.83;;;13.20;99.90;;;;;;5033651;28;20053;-48
2022/10/21 01:06:56;;;;;;;14.27;4.63;;;13.20;99.90;;;;;;5033616;28;20057;-49
2022/10/21 01:09:22;;;;;;;10.82;4.97;;;13.10;99.90;;;;;;5033674;28;20084;-49
2022/10/21 01:11:48;;;;;;;11.63;4.63;;;13.10;99.90;;;;;;5033519;28;20527;-52
2022/10/21 01:14:42;;;;;;;8.25;4.50;;;13.10;99.90;;;;;;5033598;28;20099;-47
2022/10/21 01:17:13;;;;;;;7.80;4.60;;;13.00;99.90;;;;;;5033466;28;20021;-50
2022/10/21 01:20:06;;;;;;;12.00;5.75;;;13.00;99.90;;;;;;5033375;28;20029;-47
2022/10/21 01:23:09;;;;;;;12.65;6.43;;;13.10;99.90;;;;;;5033298;28;20503;-53
2022/10/21 01:25:59;;;;;;;15.38;7.13;;;13.30;99.90;;;;;;5033323;28;20041;-52
2022/10/21 01:29:01;;;;;;;16.33;8.02;;;13.30;99.90;;;;;;5033282;28;20033;-49
2022/10/21 01:31:59;;;;;;;20.92;7.68;;;13.40;99.90;;;;;;5032055;28;20448;-46
2022/10/21 01:34:42;;;;;;;14.93;7.32;;;13.30;99.90;;;;;;5028931;28;20045;-48
2022/10/21 01:37:21;;;;;;;17.25;7.47;;;13.30;99.90;;;;;;5033177;28;20025;-46
2022/10/21 01:40:06;;;;;;;18.58;9.38;;;13.30;99.90;;;;;;5033159;28;20044;-47
2022/10/21 01:42:35;;;;;;;18.17;10.23;;;13.30;99.90;;;;;;5032335;28;20125;-47
2022/10/21 01:45:13;;;;;;;22.03;10.57;;;13.40;99.90;;;;;;5032937;28;20034;-47
2022/10/21 01:47:45;;;;;;;18.25;10.35;;;13.50;99.90;;;;;;5033145;28;20112;-47
2022/10/21 01:50:20;;;;;;;25.33;10.43;;;13.60;99.90;;;;;;5032791;28;20029;-47
2022/10/21 01:52:51;;;;;;;15.77;8.57;;;13.60;99.90;;;;;;5032939;28;20030;-49
2022/10/21 01:55:23;;;;;;;17.55;8.35;;;13.60;99.90;;;;;;5032453;28;20112;-46
2022/10/21 01:57:54;;;;;;;17.92;9.85;;;13.60;99.90;;;;;;5032682;28;20026;-46
2022/10/21 02:00:20;;;;;;;18.17;9.68;;;13.60;99.90;;;;;;5032561;28;20075;-46
2022/10/21 02:02:47;;;;;;;21.52;10.77;;;13.60;99.90;;;;;;5032754;28;20041;-46
2022/10/21 02:05:24;;;;;;;17.50;9.73;;;13.70;99.90;;;;;;5032504;28;20361;-46
2022/10/21 02:07:50;;;;;;;21.52;10.65;;;13.70;99.90;;;;;;5032495;28;20048;-53
2022/10/21 02:10:17;;;;;;;20.35;11.07;;;13.70;99.90;;;;;;5032331;28;20084;-49
2022/10/21 02:12:46;;;;;;;20.42;10.23;;;13.90;99.90;;;;;;5032595;28;20030;-47
2022/10/21 02:15:15;;;;;;;16.70;9.65;;;13.80;99.90;;;;;;5032309;28;20370;-47
2022/10/21 02:17:47;;;;;;;19.85;9.35;;;13.90;99.90;;;;;;5032443;28;20029;-46
2022/10/21 02:20:14;;;;;;;16.45;8.35;;;13.90;99.90;;;;;;5032201;28;20025;-50
2022/10/21 02:22:42;;;;;;;16.77;8.73;;;13.80;99.90;;;;;;5032362;28;20110;-48
2022/10/21 02:25:14;;;;;;;20.85;8.88;;;13.90;99.90;;;;;;5032110;28;20021;-49
2022/10/21 02:27:40;;;;;;;17.85;8.13;;;13.90;99.90;;;;;;5032183;28;20029;-49
2022/10/21 02:30:06;;;;;;;20.10;8.48;;;14.00;99.90;;;;;;5032148;28;20079;-46
2022/10/21 02:32:45;;;;;;;17.35;8.55;;;14.10;99.90;;;;;;5032095;28;20021;-46
2022/10/21 02:35:17;;;;;;;20.15;7.90;;;14.20;99.90;;;;;;5031861;28;20075;-46
2022/10/21 02:37:53;;;;;;;22.33;8.95;;;14.10;99.90;;;;;;5032274;28;20029;-49
2022/10/21 02:40:37;;;;;;;20.85;9.07;;;14.10;99.90;;;;;;5031906;28;20048;-48
2022/10/21 02:43:08;;;;;;;20.90;8.45;;;14.10;99.90;;;;;;5031451;28;20108;-48
2022/10/21 02:45:34;;;;;;;22.35;8.60;;;14.10;99.90;;;;;;5031886;28;20021;-46
2022/10/21 02:48:00;;;;;;;21.35;8.35;;;14.00;99.90;;;;;;5031577;28;20485;-46
2022/10/21 02:50:26;;;;;;;19.27;9.15;;;14.00;99.90;;;;;;5031772;28;20032;-45
2022/10/21 02:52:52;;;;;;;22.38;9.00;;;13.90;99.90;;;;;;5014056;28;20025;-46
2022/10/21 02:55:17;;;;;;;19.63;9.05;;;14.00;99.90;;;;;;5031538;28;20021;-46
2022/10/21 02:57:43;;;;;;;19.75;8.57;;;13.90;99.90;;;;;;5031621;28;20021;-45
2022/10/21 03:00:09;;;;;;;18.58;8.93;;;13.90;99.90;;;;;;5031477;28;20083;-45
2022/10/21 03:02:35;;;;;;;19.77;8.25;;;13.80;99.90;;;;;;5031805;28;20491;-45
2022/10/21 03:05:01;;;;;;;16.95;8.70;;;13.80;99.90;;;;;;5031734;28;20038;-45
2022/10/21 03:07:26;;;;;;;18.58;8.85;;;13.70;99.90;;;;;;5031316;28;20431;-48
2022/10/21 03:09:52;;;;;;;18.95;9.23;;;13.70;99.90;;;;;;5031409;28;20174;-48
2022/10/21 03:12:17;;;;;;;22.95;9.20;;;13.70;99.90;;;;;;5031160;28;20029;-49
2022/10/21 03:14:43;;;;;;;16.38;9.07;;;13.60;99.90;;;;;;5031170;28;20037;-48
2022/10/21 03:17:09;;;;;;;21.13;8.90;;;13.60;99.90;;;;;;5031230;28;20032;-50
2022/10/21 03:19:34;;;;;;;40.80;9.07;;;13.60;99.90;;;;;;5031286;28;20072;-46
2022/10/21 03:22:00;;;;;;;26.52;8.70;;;13.60;99.90;;;;;;5031171;28;20379;-50
2022/10/21 03:24:25;;;;;;;70.80;9.45;;;13.50;99.90;;;;;;5029558;28;20026;-51
2022/10/21 03:26:51;;;;;;;40.50;8.80;;;13.50;99.90;;;;;;5030827;28;20099;-49
2022/10/21 03:29:16;;;;;;;27.15;9.40;;;13.50;99.90;;;;;;5030996;28;20025;-54
2022/10/21 03:31:42;;;;;;;28.40;9.73;;;13.50;99.90;;;;;;5031254;28;20083;-45
2022/10/21 03:34:08;;;;;;;29.48;11.27;;;13.60;99.90;;;;;;5030733;28;20119;-46
2022/10/21 03:36:33;;;;;;;20.65;10.80;;;13.60;99.90;;;;;;5031063;28;20021;-49
2022/10/21 03:38:59;;;;;;;26.27;11.68;;;13.60;99.90;;;;;;5030739;28;20121;-46
2022/10/21 03:41:24;;;;;;;30.17;12.18;;;13.70;99.90;;;;;;5030800;28;20025;-50
2022/10/21 03:43:50;;;;;;;28.85;11.38;;;13.80;99.90;;;;;;5031114;28;20026;-46
2022/10/21 03:46:16;;;;;;;27.05;11.05;;;13.80;99.90;;;;;;5030852;28;20040;-46
2022/10/21 03:48:41;;;;;;;26.50;10.55;;;13.90;99.90;;;;;;5030913;28;20110;-47
2022/10/21 03:51:07;;;;;;;20.52;10.30;;;13.90;99.90;;;;;;5030747;28;20025;-47
2022/10/21 03:53:32;;;;;;;20.65;9.55;;;13.90;99.90;;;;;;5031520;28;20033;-50
2022/10/21 03:55:58;;;;;;;22.35;9.50;;;13.80;99.90;;;;;;5033539;28;20389;-48
2022/10/21 03:58:24;;;;;;;20.88;9.88;;;13.90;99.90;;;;;;5034849;28;20010;-48
2022/10/21 04:00:53;;;;;;;21.77;8.98;;;13.80;99.90;;;;;;5034826;28;20033;-49
2022/10/21 04:03:19;;;;;;;20.23;8.90;;;13.80;99.90;;;;;;5021362;28;20029;-53
2022/10/21 04:05:45;;;;;;;19.15;9.02;;;13.80;99.90;;;;;;5035002;28;20030;-47
2022/10/21 04:08:10;;;;;;;24.02;8.20;;;13.80;99.90;;;;;;5034664;28;20366;-54
2022/10/21 04:10:36;;;;;;;24.27;8.55;;;13.80;99.90;;;;;;5034803;28;20057;-53
2022/10/21 04:13:02;;;;;;;18.63;9.25;;;13.80;99.90;;;;;;5034702;28;20029;-48
2022/10/21 04:15:28;;;;;;;19.38;8.88;;;13.80;99.90;;;;;;5034638;28;20091;-52
2022/10/21 04:17:53;;;;;;;21.58;8.95;;;13.90;99.90;;;;;;5034730;28;20124;-56
2022/10/21 04:20:19;;;;;;;20.48;8.88;;;13.80;99.90;;;;;;5033521;28;20025;-53
2022/10/21 04:22:44;;;;;;;24.15;8.90;;;13.80;99.90;;;;;;5034189;28;20026;-54
2022/10/21 04:25:10;;;;;;;18.88;8.13;;;13.90;99.90;;;;;;5034079;28;20382;-48
2022/10/21 04:27:36;;;;;;;23.83;8.95;;;13.90;99.90;;;;;;5034355;28;20061;-55
2022/10/21 04:30:02;;;;;;;20.30;8.98;;;13.80;99.90;;;;;;5033986;28;20100;-50
2022/10/21 04:32:27;;;;;;;16.13;7.82;;;13.90;99.90;;;;;;5034290;28;20032;-54
2022/10/21 04:34:53;;;;;;;20.45;8.60;;;13.80;99.90;;;;;;5034178;28;20041;-52
2022/10/21 04:37:18;;;;;;;22.50;8.52;;;13.80;99.90;;;;;;5034087;28;20076;-50
2022/10/21 04:39:44;;;;;;;28.08;8.55;;;13.70;99.90;;;;;;5034148;28;20036;-51
2022/10/21 04:42:09;;;;;;;21.65;8.20;;;13.70;99.90;;;;;;5034172;28;20070;-46
2022/10/21 04:44:38;;;;;;;32.28;7.60;;;13.70;99.90;;;;;;5034131;28;20636;-51
2022/10/21 04:47:04;;;;;;;25.08;7.97;;;13.60;99.90;;;;;;5034106;28;20033;-49
2022/10/21 04:49:29;;;;;;;16.70;6.97;;;13.60;99.90;;;;;;5033998;28;20029;-51
2022/10/21 04:51:55;;;;;;;12.15;7.28;;;13.60;99.90;;;;;;5034064;28;20403;-56
2022/10/21 04:54:20;;;;;;;20.13;6.70;;;13.60;99.90;;;;;;5033628;28;20112;-46
2022/10/21 04:56:46;;;;;;;12.75;6.32;;;13.60;99.90;;;;;;5033974;28;20436;-48
2022/10/21 04:59:12;;;;;;;18.83;6.28;;;13.60;99.90;;;;;;5033699;28;20067;-46
2022/10/21 05:01:37;;;;;;;15.57;7.28;;;13.60;99.90;;;;;;5033827;28;20022;-48
2022/10/21 05:04:03;;;;;;;15.98;7.00;;;13.70;99.90;;;;;;5033674;28;20036;-47
2022/10/21 05:06:29;;;;;;;19.40;7.35;;;13.70;99.90;;;;;;5032261;28;20025;-49
2022/10/21 05:08:54;;;;;;;17.52;6.72;;;13.80;99.90;;;;;;5033593;28;20116;-51
2022/10/21 05:11:20;;;;;;;18.50;7.22;;;13.90;99.90;;;;;;5033475;28;20021;-46
2022/10/21 05:13:46;;;;;;;17.10;6.90;;;13.90;99.90;;;;;;5033562;28;20049;-46
2022/10/21 05:16:11;;;;;;;18.48;6.85;;;13.80;99.90;;;;;;5033405;28;20018;-46
2022/10/21 05:18:37;;;;;;;18.27;6.68;;;13.80;99.90;;;;;;5033530;28;20482;-46
2022/10/21 05:21:02;;;;;;;17.50;6.90;;;13.80;99.90;;;;;;5033370;28;20029;-47
2022/10/21 05:23:28;;;;;;;20.60;6.88;;;13.80;99.90;;;;;;5033369;28;20021;-48
2022/10/21 05:25:54;;;;;;;15.95;6.38;;;13.80;99.90;;;;;;5033205;28;20050;-46
2022/10/21 05:28:20;;;;;;;15.02;5.78;;;13.80;99.90;;;;;;5033147;28;20029;-47
2022/10/21 05:30:46;;;;;;;14.38;6.60;;;13.80;99.90;;;;;;5033250;28;20033;-52
2022/10/21 05:33:12;;;;;;;17.75;8.50;;;13.80;99.90;;;;;;5033132;28;20028;-50
2022/10/21 05:35:38;;;;;;;14.45;6.55;;;13.70;99.90;;;;;;5033057;28;20048;-46
2022/10/21 05:38:04;;;;;;;16.40;7.07;;;13.70;99.90;;;;;;5032992;28;20109;-46
2022/10/21 05:40:30;;;;;;;16.65;6.60;;;13.70;99.90;;;;;;5033213;28;20112;-46
2022/10/21 05:42:56;;;;;;;18.95;6.95;;;13.70;99.90;;;;;;5033239;28;20038;-46
2022/10/21 05:45:22;;;;;;;16.35;6.00;;;13.80;99.90;;;;;;5033111;28;20541;-45
2022/10/21 05:47:47;;;;;;;15.05;5.18;;;13.80;99.90;;;;;;5033157;28;20425;-48
2022/10/21 05:50:13;;;;;;;13.63;6.00;;;13.80;99.90;;;;;;5032872;28;20099;-47
2022/10/21 05:52:39;;;;;;;18.17;6.15;;;13.80;99.90;;;;;;5032733;28;20108;-46
2022/10/21 05:55:06;;;;;;;15.48;5.50;;;13.90;99.90;;;;;;5032807;28;20029;-46
2022/10/21 05:57:33;;;;;;;15.80;5.78;;;13.90;99.90;;;;;;5032851;28;20021;-46
2022/10/21 05:59:59;;;;;;;14.98;6.10;;;13.90;99.90;;;;;;5032716;28;20447;-46
2022/10/21 06:02:24;;;;;;;14.00;5.28;;;13.80;99.90;;;;;;5032574;28;20075;-46
2022/10/21 06:04:50;;;;;;;15.02;5.13;;;13.80;99.90;;;;;;5032663;28;20029;-46
2022/10/21 06:07:15;;;;;;;9.38;5.25;;;13.80;99.90;;;;;;5032683;28;20025;-47
2022/10/21 06:09:41;;;;;;;17.50;5.15;;;13.80;99.90;;;;;;5032715;28;20036;-46
2022/10/21 06:12:07;;;;;;;15.50;5.63;;;13.80;99.90;;;;;;5032791;28;20049;-46
2022/10/21 06:14:35;;;;;;;14.15;5.32;;;13.80;99.90;;;;;;5032482;28;20029;-52
2022/10/21 06:17:01;;;;;;;12.45;5.40;;;13.80;99.90;;;;;;5032119;28;20029;-50
2022/10/21 06:19:27;;;;;;;15.05;4.80;;;13.90;99.90;;;;;;5032125;28;20424;-50
2022/10/21 06:21:53;;;;;;;17.73;5.18;;;14.00;99.90;;;;;;5032208;28;20472;-49
2022/10/21 06:24:19;;;;;;;13.80;4.10;;;14.00;99.90;;;;;;5032266;28;20025;-48
2022/10/21 06:26:45;;;;;;;16.65;4.75;;;14.00;99.90;;;;;;5032102;28;20174;-48
2022/10/21 06:29:10;;;;;;;11.73;4.55;;;14.10;99.90;;;;;;5032159;28;20489;-51
2022/10/21 06:31:36;;;;;;;14.40;4.20;;;14.10;99.90;;;;;;5031812;28;20113;-48
2022/10/21 06:34:02;;;;;;;11.13;4.97;;;14.10;99.90;;;;;;5031859;28;20473;-51
2022/10/21 06:36:29;;;;;;;14.23;4.50;;;14.10;99.90;;;;;;5031900;28;20417;-52
2022/10/21 06:38:54;;;;;;;12.05;4.32;;;14.10;99.90;;;;;;5031648;28;20041;-57
2022/10/21 06:41:20;;;;;;;15.02;4.75;;;14.20;99.90;;;;;;5031725;28;20037;-51
2022/10/21 06:43:46;;;;;;;10.77;4.05;;;14.20;99.90;;;;;;5031632;28;20566;-54
2022/10/21 06:46:16;;;;;;;18.75;4.75;;;14.30;99.90;;;;;;5031309;28;20377;-48
2022/10/21 06:48:42;;;;;;;16.15;4.30;;;14.30;99.90;;;;;;5031386;28;20029;-50
2022/10/21 06:51:13;;;;;;;16.02;4.90;;;14.40;99.90;;;;;;5031357;28;20128;-57
2022/10/21 06:53:39;;;;;;;14.10;4.38;;;14.40;99.90;;;;;;5031707;28;20022;-48
2022/10/21 06:56:08;;;;;;;18.88;4.90;;;14.50;99.90;;;;;;5031469;28;20358;-47
2022/10/21 06:58:38;;;;;;;21.30;4.85;;;14.50;99.90;;;;;;5031560;28;20036;-52
2022/10/21 07:01:10;;;;;;;;;;;14.60;99.90;;;;;;5031738;28;20083;-48
2022/10/21 07:03:36;;;;;;;14.35;4.07;;;14.60;99.90;;;;;;5031410;28;19916;-47
2022/10/21 07:06:01;;;;;;;20.02;4.90;;;14.70;99.90;;;;;;5031255;28;20089;-47
2022/10/21 07:08:28;;;;;;;17.77;4.70;;;14.70;99.90;;;;;;5031398;28;20029;-54
2022/10/21 07:10:54;;;;;;;21.10;4.35;;;14.80;99.90;;;;;;5031167;28;20033;-49
2022/10/21 07:13:21;;;;;;;17.05;4.68;;;14.90;99.90;;;;;;5031287;28;20048;-52
2022/10/21 07:15:46;;;;;;;17.13;4.15;;;14.90;99.90;;;;;;5031120;28;20029;-49
2022/10/21 07:18:12;;;;;;;15.45;4.40;;;15.00;99.90;;;;;;5030995;28;20412;-54
2022/10/21 07:20:38;;;;;;;19.15;4.75;;;15.00;99.90;;;;;;5031253;28;20353;-53
2022/10/21 07:23:03;;;;;;;21.70;4.25;;;15.00;99.90;;;;;;5013414;28;20103;-48
2022/10/21 07:25:29;;;;;;;21.67;4.07;;;15.10;99.90;;;;;;5030980;28;20038;-57
2022/10/21 07:27:54;;;;;;;14.23;5.00;;;15.30;99.90;;;;;;5030570;28;20037;-52
2022/10/21 07:30:20;;;;;;;18.60;4.75;;;15.40;99.90;;;;;;5030560;28;20180;-49
2022/10/21 07:32:46;;;;;;;23.23;4.35;;;15.60;99.90;;;;;;5025882;28;20029;-51
2022/10/21 07:35:11;;;;;;;18.80;4.00;;;15.70;99.90;;;;;;5030372;28;20472;-50
2022/10/21 07:37:37;;;;;;;16.25;3.47;;;15.70;99.90;;;;;;5031143;28;20064;-47
2022/10/21 07:40:04;;;;;;;17.00;3.60;;;15.90;99.90;;;;;;5030385;28;20362;-51
2022/10/21 07:42:30;;;;;;;16.08;4.43;;;16.00;99.90;;;;;;5029843;28;20392;-47
2022/10/21 07:44:58;;;;;;;12.73;3.45;;;16.10;99.90;;;;;;5030161;28;20022;-55
2022/10/21 07:47:24;;;;;;;12.40;3.27;;;16.20;99.90;;;;;;5029544;28;20017;-51
2022/10/21 07:49:51;;;;;;;17.95;3.63;;;16.30;99.90;;;;;;5029895;28;20263;-56
2022/10/21 07:52:17;;;;;;;12.40;4.22;;;16.40;99.90;;;;;;5029144;28;20076;-48
2022/10/21 07:54:43;;;;;;;13.43;3.10;;;16.60;99.90;;;;;;5030032;28;20524;-52
2022/10/21 07:57:09;;;;;;;16.45;3.67;;;16.70;99.90;;;;;;5030064;28;20147;-47
2022/10/21 07:59:35;;;;;;;14.93;3.30;;;16.80;99.90;;;;;;5030338;28;20112;-49
2022/10/21 08:02:01;;;;;;;16.75;3.72;;;16.80;99.90;;;;;;5029400;28;20021;-53
2022/10/21 08:04:30;;;;;;;15.30;3.85;;;16.90;99.90;;;;;;5019487;28;20021;-47
2022/10/21 08:06:57;;;;;;;18.20;3.40;;;17.10;99.90;;;;;;5025577;28;20025;-47
2022/10/21 08:09:23;;;;;;;16.05;2.90;;;17.20;99.90;;;;;;5026981;28;20523;-46
2022/10/21 08:11:48;;;;;;;22.13;3.00;;;17.30;99.90;;;;;;5030230;28;20026;-48
2022/10/21 08:14:14;;;;;;;11.50;2.97;;;17.40;99.90;;;;;;5029655;28;20105;-48
2022/10/21 08:16:40;;;;;;;11.02;2.38;;;17.60;99.90;;;;;;5029035;28;20030;-45
2022/10/21 08:19:07;;;;;;;15.70;3.10;;;17.80;99.90;;;;;;5030084;28;20101;-53
2022/10/21 08:21:33;;;;;;;15.52;2.67;;;18.00;99.90;;;;;;5029837;28;20053;-49
2022/10/21 08:24:02;;;;;;;17.98;3.03;;;17.90;99.90;;;;;;5024283;28;20026;-47
2022/10/21 08:26:28;;;;;;;14.68;2.72;;;17.80;99.90;;;;;;5029942;28;20076;-51
2022/10/21 08:28:53;;;;;;;11.65;2.47;;;17.80;99.90;;;;;;5028327;28;20060;-50
2022/10/21 08:31:21;;;;;;;11.00;2.53;;;17.90;99.90;;;;;;5028883;28;20497;-51
2022/10/21 08:33:47;;;;;;;14.52;2.38;;;17.80;99.90;;;;;;5028736;28;20037;-47
2022/10/21 08:36:18;;;;;;;17.58;2.75;;;17.70;99.90;;;;;;5028864;28;20069;-50
2022/10/21 08:38:44;;;;;;;14.85;2.30;;;17.50;99.90;;;;;;5028887;28;20087;-46
2022/10/21 08:41:28;;;;;;;14.10;2.25;;;17.40;99.90;;;;;;5032492;28;20036;-51
2022/10/21 08:44:20;;;;;;;11.13;2.47;;;17.20;99.90;;;;;;5034154;28;20468;-48
2022/10/21 08:47:13;;;;;;;17.30;2.58;;;17.20;99.90;;;;;;5033339;28;20022;-52
2022/10/21 08:49:59;;;;;;;13.55;2.20;;;17.10;99.90;;;;;;5032211;28;20037;-54
2022/10/21 08:52:32;;;;;;;14.77;2.58;;;17.10;99.90;;;;;;5033216;28;20080;-51
2022/10/21 08:55:03;;;;;;;16.83;2.20;;;17.10;99.90;;;;;;5032109;28;20044;-55
2022/10/21 08:57:33;;;;;;;14.95;2.47;;;17.10;99.90;;;;;;5032631;28;20116;-50
2022/10/21 08:59:58;;;;;;;19.15;2.53;;;17.00;99.90;;;;;;5031349;28;20439;-50
2022/10/21 09:02:24;;;;;;;9.95;2.40;;;17.00;99.90;;;;;;5029210;28;20021;-49
2022/10/21 09:04:53;;;;;;;16.25;2.50;;;17.00;99.90;;;;;;5027715;28;20026;-49
2022/10/21 09:07:46;;;;;;;15.10;2.28;;;17.00;99.90;;;;;;5025060;28;20025;-47
2022/10/21 09:10:29;;;;;;;16.98;2.80;;;17.10;99.90;;;;;;5027638;28;20047;-49
2022/10/21 09:13:10;;;;;;;15.40;2.88;;;17.20;99.90;;;;;;5031194;28;20046;-48
2022/10/21 09:16:01;;;;;;;15.10;2.35;;;17.30;99.90;;;;;;5028324;28;20052;-46
2022/10/21 09:18:47;;;;;;;17.40;3.10;;;17.40;99.90;;;;;;5025182;28;20026;-56
2022/10/21 09:21:53;;;;;;;18.38;2.67;;;17.50;99.90;;;;;;5028761;28;20044;-48
2022/10/21 09:24:29;;;;;;;11.30;2.13;;;17.60;99.90;;;;;;5030016;28;20025;-49
2022/10/21 09:26:56;;;;;;;13.77;2.78;;;17.60;99.90;;;;;;5029803;28;20490;-49
2022/10/21 09:29:30;;;;;;;10.90;2.10;;;17.60;99.90;;;;;;5031583;28;20029;-48
2022/10/21 09:32:12;;;;;;;16.70;2.30;;;17.50;99.90;;;;;;5027077;28;20033;-52
2022/10/21 09:34:55;;;;;;;13.10;2.20;;;17.50;99.90;;;;;;5029418;28;20103;-47
2022/10/21 09:37:39;;;;;;;13.82;2.30;;;17.70;99.90;;;;;;5030384;28;20021;-47
2022/10/21 09:40:20;;;;;;;10.85;2.20;;;17.70;99.90;;;;;;5021387;28;20036;-48
2022/10/21 09:42:49;;;;;;;13.82;2.50;;;17.50;99.90;;;;;;5028933;28;20036;-49
2022/10/21 09:45:23;;;;;;;16.30;2.13;;;17.30;99.90;;;;;;5032618;28;20020;-56
2022/10/21 09:47:59;;;;;;;15.55;2.58;;;17.20;99.90;;;;;;5032072;28;20030;-49
2022/10/21 09:50:26;;;;;;;17.45;3.30;;;17.20;99.90;;;;;;5032218;28;20097;-51
2022/10/21 09:52:59;;;;;;;10.73;2.17;;;17.30;99.90;;;;;;5030846;28;20172;-50
2022/10/21 09:55:25;;;;;;;18.23;2.92;;;17.30;99.90;;;;;;5031573;28;20384;-47
2022/10/21 09:57:59;;;;;;;15.88;2.58;;;17.40;99.90;;;;;;5030774;28;20030;-47
2022/10/21 10:00:46;;;;;;;12.60;1.95;;;17.60;99.90;;;;;;5017964;28;20071;-49
2022/10/21 10:03:27;;;;;;;9.43;2.30;;;17.70;99.90;;;;;;5024714;28;20163;-51
2022/10/21 10:05:53;;;;;;;14.35;2.08;;;17.80;99.90;;;;;;5029620;28;20057;-48
2022/10/21 10:08:31;;;;;;;15.75;2.33;;;17.80;99.90;;;;;;5030708;28;20056;-52
2022/10/21 10:11:08;;;;;;;14.85;2.38;;;17.60;99.90;;;;;;5031653;28;20042;-47
2022/10/21 10:13:36;;;;;;;12.70;1.88;;;17.50;99.90;;;;;;5031578;28;20113;-51
2022/10/21 10:16:15;;;;;;;16.15;2.67;;;17.60;99.90;;;;;;5031375;28;20030;-49
2022/10/21 10:18:42;;;;;;;13.35;2.22;;;17.60;99.90;;;;;;5031796;28;20380;-48
2022/10/21 10:21:19;;;;;;;16.48;2.65;;;17.60;99.90;;;;;;5031532;28;20083;-49
2022/10/21 10:23:54;;;;;;;13.10;2.30;;;17.60;99.90;;;;;;5031476;28;20037;-49
2022/10/21 10:26:33;;;;;;;19.45;2.50;;;17.60;99.90;;;;;;5031285;28;20493;-49
2022/10/21 10:29:14;;;;;;;16.67;2.60;;;17.60;99.90;;;;;;5031615;28;20112;-54
2022/10/21 10:31:46;;;;;;;15.88;2.38;;;17.70;99.90;;;;;;5029836;28;20100;-48
2022/10/21 10:34:29;;;;;;;16.13;2.63;;;17.70;99.90;;;;;;5031631;28;20075;-54
2022/10/21 10:37:17;;;;;;;11.93;2.08;;;17.80;99.90;;;;;;5031477;28;20472;-53
2022/10/21 10:39:46;;;;;;;14.98;2.47;;;17.90;99.90;;;;;;5031325;28;20037;-55
2022/10/21 10:42:27;;;;;;;17.65;2.40;;;18.00;99.90;;;;;;5031184;28;20451;-48
2022/10/21 10:44:56;;;;;;;17.70;2.50;;;17.90;99.90;;;;;;5032426;28;20508;-48
2022/10/21 10:47:30;;;;;;;12.60;2.78;;;17.90;99.90;;;;;;5030374;28;20053;-51
2022/10/21 10:49:56;;;;;;;14.88;2.80;;;17.80;99.90;;;;;;5028206;28;20056;-51
2022/10/21 10:52:24;;;;;;;14.23;2.60;;;18.00;99.90;;;;;;5026559;28;20045;-50
2022/10/21 10:55:12;;;;;;;15.88;2.63;;;18.20;99.90;;;;;;5016357;28;20041;-49
2022/10/21 10:57:41;;;;;;;19.60;2.75;;;18.20;99.90;;;;;;5018128;28;20033;-47
2022/10/21 11:00:19;;;;;;;16.17;2.42;;;18.00;99.90;;;;;;5025591;28;20029;-48
2022/10/21 11:03:02;;;;;;;17.17;2.70;;;18.00;99.90;;;;;;5030150;28;20028;-52
2022/10/21 11:05:42;;;;;;;13.68;2.33;;;18.00;99.90;;;;;;5029842;28;20064;-52
2022/10/21 11:08:31;;;;;;;17.60;2.88;;;18.00;99.90;;;;;;5029773;28;20038;-47
2022/10/21 11:11:01;;;;;;;14.32;3.17;;;18.00;99.90;;;;;;5018820;28;20026;-51
2022/10/21 11:13:29;;;;;;;17.30;3.85;;;18.10;99.90;;;;;;5028677;28;20048;-48
2022/10/21 11:16:18;;;;;;;20.02;3.58;;;18.10;99.90;;;;;;5030235;28;20030;-49
2022/10/21 11:18:58;;;;;;;15.30;2.85;;;18.10;99.90;;;;;;5026654;28;20108;-51
2022/10/21 11:21:26;;;;;;;18.58;3.63;;;18.10;99.90;;;;;;5029745;28;20485;-47
2022/10/21 11:24:22;;;;;;;19.10;2.75;;;18.40;99.90;;;;;;5029640;28;20104;-48
2022/10/21 11:26:51;;;;;;;15.13;2.65;;;19.30;99.90;;;;;;5009632;28;20049;-48
2022/10/21 11:30:21;;;;;;;23.23;2.80;;;20.10;99.90;;;;;;5028596;28;20102;-49
2022/10/21 11:33:01;;;;;;;18.13;2.70;;;20.20;99.90;;;;;;4988936;28;20286;-49
2022/10/21 11:35:33;;;;;;;14.35;2.33;;;20.70;99.90;;;;;;5029683;28;20583;-51
2022/10/21 11:38:07;;;;;;;17.52;2.72;;;21.30;99.90;;;;;;5025652;28;20049;-46
2022/10/21 11:40:47;;;;;;;14.75;3.13;;;21.60;99.90;;;;;;5029467;28;20067;-50
2022/10/21 11:43:21;;;;;;;19.80;2.70;;;21.40;99.90;;;;;;5029571;28;20017;-50
2022/10/21 11:46:14;;;;;;;12.60;2.30;;;20.60;99.90;;;;;;5029138;28;20045;-51
2022/10/21 11:48:59;;;;;;;14.63;3.25;;;20.00;99.90;;;;;;5029209;28;20555;-52
2022/10/21 11:51:51;;;;;;;15.43;2.85;;;19.80;99.90;;;;;;5028102;28;20041;-53
2022/10/21 11:54:16;;;;;;;16.60;2.40;;;20.00;99.90;;;;;;4992082;28;20173;-49
2022/10/21 11:57:12;;;;;;;14.50;3.08;;;20.00;99.90;;;;;;5029248;28;20030;-49
2022/10/21 12:00:03;;;;;;;15.00;2.83;;;19.70;99.90;;;;;;5029684;28;20053;-47
2022/10/21 12:02:46;;;;;;;21.35;2.92;;;19.90;99.90;;;;;;5029317;28;20474;-51
2022/10/21 12:05:33;;;;;;;19.05;2.97;;;19.50;99.90;;;;;;5029338;28;20436;-50
2022/10/21 12:08:34;;;;;;;17.50;3.05;;;19.30;99.90;;;;;;5029609;28;20476;-53
2022/10/21 12:11:10;;;;;;;22.65;2.92;;;19.00;99.90;;;;;;5018902;28;20033;-50
2022/10/21 12:13:47;;;;;;;19.58;3.13;;;19.00;99.90;;;;;;5029413;28;20033;-49
2022/10/21 12:16:33;;;;;;;19.50;3.40;;;18.80;99.90;;;;;;5032816;28;20043;-47
2022/10/21 12:19:04;;;;;;;12.98;2.72;;;19.20;99.90;;;;;;5033006;28;20069;-48
2022/10/21 12:21:35;;;;;;;19.67;2.83;;;20.40;99.90;;;;;;5033984;28;20472;-48
2022/10/21 12:24:12;;;;;;;22.33;3.33;;;21.10;99.90;;;;;;5033440;28;20029;-49
2022/10/21 12:27:07;;;;;;;15.82;2.63;;;21.50;99.90;;;;;;5034196;28;20068;-50
2022/10/21 12:29:32;;;;;;;22.77;3.55;;;21.30;99.90;;;;;;5034232;28;20300;-47
2022/10/21 12:32:05;;;;;;;18.33;3.10;;;20.80;99.90;;;;;;5034115;28;20018;-51
2022/10/21 12:34:32;;;;;;;16.15;3.03;;;20.40;99.90;;;;;;5033355;28;20419;-51
2022/10/21 12:36:58;;;;;;;20.50;3.45;;;20.20;99.90;;;;;;5033527;28;20043;-49
2022/10/21 12:39:32;;;;;;;19.33;3.10;;;19.90;99.90;;;;;;5033761;28;20431;-50
2022/10/21 12:42:13;;;;;;;21.63;3.05;;;19.70;99.90;;;;;;5033041;28;20103;-54
2022/10/21 12:44:45;;;;;;;26.00;3.40;;;19.40;99.90;;;;;;5026801;28;20037;-49
2022/10/21 12:47:33;;;;;;;17.83;3.08;;;19.10;99.90;;;;;;5033320;28;20017;-51
2022/10/21 12:50:24;;;;;;;18.05;3.42;;;18.80;99.90;;;;;;5015403;28;20026;-49
2022/10/21 12:53:05;;;;;;;25.45;3.92;;;18.60;99.90;;;;;;5032235;28;20029;-48
2022/10/21 12:55:38;;;;;;;19.75;3.53;;;18.40;99.90;;;;;;5031150;28;20025;-50
2022/10/21 12:58:16;;;;;;;22.85;3.42;;;18.30;99.90;;;;;;5032196;28;20026;-49